Time;durP1;ratioP1;P1;durP2;ratioP2;P2;SDS_P1;SDS_P2;PMS_P1;PMS_P2;Temp;Humidity;BMP_temperature;BMP_pressure;BME280_temperature;BME280_humidity;BME280_pressure;Samples;Min_cycle;Max_cycle;Signal;HPM_P1;HPM_P2
2022/04/29 00:01:54;;;;;;;54.83;27.43;;;5.90;1.00;;;;;;10494940;28;20204;-80
2022/04/29 00:07:15;;;;;;;67.43;30.87;;;5.80;1.00;;;;;;10508578;28;20228;-79
2022/04/29 00:12:37;;;;;;;60.87;30.97;;;5.60;1.00;;;;;;10534638;28;20194;-80
2022/04/29 00:17:58;;;;;;;57.30;29.83;;;5.50;1.00;;;;;;10523315;28;20255;-83
2022/04/29 00:23:19;;;;;;;54.47;26.37;;;5.60;1.00;;;;;;10523019;28;20201;-83
2022/04/29 00:28:41;;;;;;;47.90;23.10;;;5.70;1.00;;;;;;10534837;28;20190;-81
2022/04/29 00:34:02;;;;;;;43.17;22.53;;;5.60;1.00;;;;;;10518914;28;20410;-79
2022/04/29 00:39:23;;;;;;;39.60;21.40;;;5.60;1.00;;;;;;10480100;28;20414;-79
2022/04/29 00:44:45;;;;;;;39.03;19.77;;;5.60;1.00;;;;;;10494775;28;20210;-82
2022/04/29 00:50:08;;;;;;;42.20;20.83;;;5.60;99.90;;;;;;10465137;28;20208;-79
2022/04/29 00:55:30;;;;;;;41.10;21.90;;;5.50;99.90;;;;;;10465680;28;20445;-80
2022/04/29 01:00:52;;;;;;;43.37;22.00;;;5.40;1.00;;;;;;10501843;28;20216;-81
2022/04/29 01:06:14;;;;;;;43.30;20.67;;;5.30;1.00;;;;;;10506322;28;20205;-81
2022/04/29 01:11:35;;;;;;;43.80;25.20;;;;;;;;;;10530861;28;20185;-82
2022/04/29 01:16:58;;;;;;;54.90;32.50;;;5.30;11.40;;;;;;10488325;28;20225;-79
2022/04/29 01:22:20;;;;;;;53.03;31.13;;;;;;;;;;10491785;28;20196;-81
2022/04/29 01:27:41;;;;;;;44.70;25.80;;;5.10;99.90;;;;;;10491457;28;20394;-84
2022/04/29 01:33:05;;;;;;;41.73;23.03;;;5.10;99.90;;;;;;10505156;28;20491;-82
2022/04/29 01:38:26;;;;;;;36.97;21.77;;;5.00;99.90;;;;;;10508489;28;20225;-83
2022/04/29 01:43:49;;;;;;;41.13;20.87;;;4.90;99.90;;;;;;10501636;28;20272;-80
2022/04/29 01:49:10;;;;;;;36.80;19.33;;;4.90;99.90;;;;;;10463708;28;20188;-80
2022/04/29 01:54:38;;;;;;;35.27;19.23;;;4.90;99.90;;;;;;10477480;28;20192;-79
2022/04/29 01:59:59;;;;;;;36.97;19.10;;;4.80;99.90;;;;;;10465382;28;20432;-79
2022/04/29 02:05:38;;;;;;;41.87;20.13;;;4.80;99.90;;;;;;10476987;28;20201;-80
2022/04/29 02:10:59;;;;;;;36.17;20.13;;;4.70;99.90;;;;;;10492129;28;20193;-81
2022/04/29 02:16:22;;;;;;;34.90;18.57;;;4.70;1.00;;;;;;10488686;28;20224;-83
2022/04/29 02:21:43;;;;;;;34.73;17.90;;;4.70;99.90;;;;;;10504295;28;20246;-84
2022/04/29 02:27:06;;;;;;;34.37;17.23;;;4.70;99.90;;;;;;10518194;28;20475;-81
2022/04/29 02:32:31;;;;;;;31.83;16.47;;;4.60;99.90;;;;;;10518194;28;20188;-83
2022/04/29 02:37:53;;;;;;;33.90;15.73;;;4.40;1.00;;;;;;10494580;28;20274;-82
2022/04/29 02:43:14;;;;;;;27.37;14.97;;;4.40;1.00;;;;;;10463340;28;20259;-84
2022/04/29 02:48:36;;;;;;;30.67;14.80;;;4.30;1.00;;;;;;10503671;28;20200;-80
2022/04/29 02:53:58;;;;;;;28.70;15.10;;;4.30;1.00;;;;;;10521318;28;20223;-84
2022/04/29 02:59:20;;;;;;;25.67;15.10;;;4.30;1.00;;;;;;10525325;28;20227;-81
2022/04/29 03:04:43;;;;;;;26.30;14.40;;;4.40;1.00;;;;;;10525502;28;20188;-84
2022/04/29 03:10:05;;;;;;;25.83;14.13;;;4.30;1.00;;;;;;10511024;28;20201;-79
2022/04/29 03:15:27;;;;;;;27.47;15.60;;;4.30;1.00;;;;;;10517235;28;20216;-80
2022/04/29 03:20:53;;;;;;;25.00;14.63;;;4.30;1.00;;;;;;10524742;28;20235;-82
2022/04/29 03:26:15;;;;;;;26.10;14.03;;;4.30;1.00;;;;;;10510062;28;20244;-80
2022/04/29 03:31:37;;;;;;;27.60;14.33;;;4.30;1.00;;;;;;10524416;28;20226;-81
2022/04/29 03:37:05;;;;;;;26.10;14.67;;;4.30;1.00;;;;;;10508434;28;20315;-83
2022/04/29 03:42:27;;;;;;;32.33;15.43;;;4.30;1.00;;;;;;10501663;28;20202;-79
2022/04/29 03:47:49;;;;;;;28.57;14.40;;;4.40;1.00;;;;;;10454114;28;20224;-79
2022/04/29 03:53:21;;;;;;;27.83;14.87;;;4.30;1.00;;;;;;10468992;28;20188;-80
2022/04/29 03:58:49;;;;;;;30.03;14.37;;;4.30;1.00;;;;;;10486806;28;20259;-82
2022/04/29 04:04:12;;;;;;;28.60;15.97;;;4.40;1.00;;;;;;10522131;28;20435;-83
2022/04/29 04:09:33;;;;;;;29.90;15.63;;;4.40;1.00;;;;;;10508187;28;20483;-80
2022/04/29 04:15:02;;;;;;;30.83;15.77;;;4.40;1.00;;;;;;10511829;28;20200;-80
2022/04/29 04:20:29;;;;;;;33.03;18.23;;;4.50;1.00;;;;;;10508277;28;20224;-79
2022/04/29 04:25:57;;;;;;;36.60;17.37;;;4.60;1.00;;;;;;10507568;28;20261;-81
2022/04/29 04:31:21;;;;;;;33.30;18.17;;;4.60;1.00;;;;;;10497484;28;20204;-80
2022/04/29 04:36:52;;;;;;;51.73;26.37;;;4.60;1.00;;;;;;10452464;28;20230;-83
2022/04/29 04:42:17;;;;;;;64.70;33.17;;;4.80;1.00;;;;;;10466093;28;20293;-79
2022/04/29 04:47:42;;;;;;;60.93;30.33;;;5.00;1.00;;;;;;10482204;28;20215;-80
2022/04/29 04:53:32;;;;;;;50.07;26.83;;;5.20;1.00;;;;;;10461020;28;20209;-80
2022/04/29 04:58:54;;;;;;;53.17;26.90;;;5.40;1.00;;;;;;10470841;28;20266;-80
2022/04/29 05:04:16;;;;;;;46.67;24.50;;;5.60;1.00;;;;;;10521340;28;20203;-80
2022/04/29 05:09:56;;;;;;;14.53;8.93;;;5.90;1.00;;;;;;10502942;28;20203;-79
2022/04/29 05:15:18;;;;;;;17.67;7.53;;;6.30;1.00;;;;;;10486726;28;20522;-83
2022/04/29 05:20:39;;;;;;;14.40;7.77;;;6.60;1.00;;;;;;10505525;28;20286;-83
2022/04/29 05:26:00;;;;;;;10.20;6.77;;;6.80;1.00;;;;;;10485933;28;20225;-84
2022/04/29 05:31:40;;;;;;;11.23;7.50;;;7.00;1.00;;;;;;10490809;28;20195;-81
2022/04/29 05:37:35;;;;;;;10.97;7.70;;;7.20;1.00;;;;;;10527676;28;20230;-84
2022/04/29 05:43:03;;;;;;;13.17;7.90;;;7.40;1.00;;;;;;10545240;28;20358;-84
2022/04/29 05:48:27;;;;;;;10.33;7.30;;;7.50;1.00;;;;;;10545264;28;20381;-79
2022/04/29 05:53:49;;;;;;;15.00;8.77;;;7.80;1.00;;;;;;10527799;28;20278;-84
2022/04/29 05:59:10;;;;;;;22.87;8.50;;;8.20;1.00;;;;;;10544303;28;20285;-86
2022/04/29 06:04:51;;;;;;;13.60;8.43;;;8.80;1.00;;;;;;10541908;28;20205;-82
2022/04/29 06:10:13;;;;;;;15.27;8.37;;;9.60;1.00;;;;;;10536464;28;20206;-81
2022/04/29 06:15:34;;;;;;;10.50;7.03;;;10.20;1.00;;;;;;10481121;28;20220;-79
2022/04/29 06:21:05;;;;;;;25.80;8.23;;;11.10;99.90;;;;;;10519475;28;20440;-81
2022/04/29 06:26:43;;;;;;;17.73;7.50;;;11.90;1.00;;;;;;10518566;28;20529;-81
2022/04/29 06:32:05;;;;;;;14.38;6.75;;;12.90;99.90;;;;;;10512342;28;20202;-84
2022/04/29 06:37:36;;;;;;;13.17;6.20;;;13.60;1.00;;;;;;10506374;28;20223;-85
2022/04/29 06:43:19;;;;;;;10.55;4.78;;;14.10;99.90;;;;;;10478319;28;20230;-80
2022/04/29 06:49:00;;;;;;;11.45;4.50;;;14.50;1.00;;;;;;10527328;28;20223;-84
2022/04/29 06:54:50;;;;;;;11.05;5.20;;;15.20;81.30;;;;;;10512877;28;20240;-83
2022/04/29 07:00:12;;;;;;;8.65;3.95;;;15.90;1.00;;;;;;10460471;28;20242;-83
2022/04/29 07:05:37;;;;;;;9.23;4.05;;;16.60;99.90;;;;;;10467515;28;20363;-79
2022/04/29 07:11:03;;;;;;;5.78;2.88;;;16.90;99.90;;;;;;10432942;28;20244;-85
2022/04/29 07:16:43;;;;;;;6.03;2.72;;;16.90;84.20;;;;;;10494395;28;20229;-84
2022/04/29 07:22:28;;;;;;;7.53;2.63;;;17.40;1.00;;;;;;10499524;28;20265;-80
2022/04/29 07:27:50;;;;;;;5.47;2.60;;;17.90;1.00;;;;;;10479370;28;20242;-81
2022/04/29 07:33:12;;;;;;;5.60;2.20;;;17.80;1.00;;;;;;10463807;28;20291;-81
2022/04/29 07:45:05;;;;;;;4.22;2.22;;;18.70;1.00;;;;;;10461464;28;20203;-82
2022/04/29 07:50:59;;;;;;;11.23;2.60;;;18.80;1.00;;;;;;10451965;28;20235;-84
2022/04/29 07:56:20;;;;;;;4.63;2.35;;;19.20;1.00;;;;;;10444547;28;20305;-85
2022/04/29 08:01:45;;;;;;;4.93;2.35;;;19.80;1.00;;;;;;10453499;28;20329;-87
2022/04/29 08:07:11;;;;;;;11.23;3.22;;;20.40;1.00;;;;;;10475350;28;20231;-80
2022/04/29 08:12:32;;;;;;;5.57;2.05;;;19.90;1.00;;;;;;10495970;28;20224;-81
2022/04/29 08:18:20;;;;;;;5.65;2.17;;;19.90;99.90;;;;;;10493206;28;20223;-85
2022/04/29 08:23:42;;;;;;;4.15;1.83;;;20.10;1.00;;;;;;10471018;28;20250;-78
2022/04/29 08:29:03;;;;;;;9.20;2.70;;;20.20;99.90;;;;;;10505763;28;20490;-79
2022/04/29 08:34:25;;;;;;;4.32;1.40;;;20.20;1.00;;;;;;10458232;28;20227;-87
2022/04/29 08:39:47;;;;;;;15.13;5.90;;;20.40;1.00;;;;;;10458947;28;20254;-80
2022/04/29 08:45:13;;;;;;;6.72;2.78;;;20.80;1.00;;;;;;10481049;28;20195;-80
2022/04/29 08:50:47;;;;;;;10.25;4.80;;;21.40;99.90;;;;;;10500767;28;20203;-82
2022/04/29 09:01:49;;;;;;;6.93;2.90;;;20.50;1.00;;;;;;10493891;28;20538;-84
2022/04/29 09:07:11;;;;;;;7.80;2.90;;;21.00;99.90;;;;;;10462096;28;20201;-81
2022/04/29 09:12:32;;;;;;;11.10;5.38;;;21.60;99.90;;;;;;10490263;28;20207;-81
2022/04/29 09:17:53;;;;;;;10.15;4.88;;;20.10;99.90;;;;;;10510046;28;20433;-77
2022/04/29 09:23:25;;;;;;;6.50;3.13;;;19.80;99.90;;;;;;10513399;28;20214;-84
2022/04/29 09:29:12;;;;;;;5.78;3.00;;;20.50;99.90;;;;;;10492049;28;20211;-83
2022/04/29 09:34:54;;;;;;;13.35;6.57;;;20.30;99.90;;;;;;10494497;28;20223;-82
2022/04/29 09:40:18;;;;;;;6.43;2.92;;;21.40;99.90;;;;;;10471113;28;20293;-80
2022/04/29 09:45:39;;;;;;;6.13;2.30;;;22.50;99.90;;;;;;10478043;28;20396;-82
2022/04/29 09:51:00;;;;;;;7.15;2.70;;;22.80;99.90;;;;;;10494932;28;20264;-84
2022/04/29 09:56:22;;;;;;;2.47;1.50;;;21.10;99.90;;;;;;10437396;28;20227;-81
2022/04/29 10:01:43;;;;;;;5.63;2.55;;;19.70;99.90;;;;;;10461461;28;20211;-80
2022/04/29 10:07:10;;;;;;;10.60;2.35;;;18.80;99.90;;;;;;10455871;28;20196;-82
2022/04/29 10:12:33;;;;;;;4.50;2.05;;;18.90;99.90;;;;;;10478536;28;20318;-80
2022/04/29 10:24:18;;;;;;;7.35;3.47;;;19.30;99.90;;;;;;10427499;28;20232;-82
2022/04/29 10:29:41;;;;;;;11.73;4.78;;;18.90;99.90;;;;;;10412033;28;20235;-82
2022/04/29 10:35:03;;;;;;;8.32;2.65;;;18.40;1.00;;;;;;10426500;28;20352;-84
2022/04/29 10:40:30;;;;;;;6.85;2.50;;;19.20;1.00;;;;;;10454517;28;20229;-81
2022/04/29 10:46:04;;;;;;;8.82;3.03;;;19.40;1.00;;;;;;10453992;28;20242;-81
2022/04/29 10:51:32;;;;;;;2.05;1.35;;;18.60;1.00;;;;;;10455027;28;20518;-78
2022/04/29 10:57:14;;;;;;;4.47;1.38;;;18.20;1.00;;;;;;10512556;28;20226;-80
2022/04/29 11:02:37;;;;;;;4.40;1.73;;;17.80;1.00;;;;;;10511872;28;20203;-81
2022/04/29 11:08:08;;;;;;;2.65;1.52;;;18.00;1.00;;;;;;10487567;28;20222;-92
2022/04/29 11:13:36;;;;;;;9.75;3.30;;;18.40;1.00;;;;;;10510882;28;20241;-79
2022/04/29 11:19:21;;;;;;;6.13;2.63;;;18.10;1.00;;;;;;10502565;28;20247;-80
2022/04/29 11:24:47;;;;;;;3.28;1.23;;;17.90;1.00;;;;;;10512964;28;20492;-80
2022/04/29 11:30:20;;;;;;;3.53;1.02;;;18.00;1.00;;;;;;10490437;28;20245;-82
2022/04/29 11:35:59;;;;;;;6.78;1.67;;;18.60;99.90;;;;;;10516982;28;20214;-80
2022/04/29 11:41:24;;;;;;;3.00;1.30;;;18.00;1.00;;;;;;10487290;28;20225;-81
2022/04/29 11:46:51;;;;;;;2.35;1.60;;;17.40;99.90;;;;;;10501811;28;20282;-81
2022/04/29 11:52:30;;;;;;;4.85;1.73;;;17.20;1.00;;;;;;10514032;28;20210;-79
2022/04/29 11:57:54;;;;;;;6.95;2.40;;;17.10;1.00;;;;;;10463105;28;20294;-79
2022/04/29 12:03:20;;;;;;;9.52;2.55;;;17.30;1.00;;;;;;10511708;28;20559;-79
2022/04/29 12:08:41;;;;;;;3.72;1.70;;;18.00;1.00;;;;;;10463611;28;20545;-78
2022/04/29 12:14:16;;;;;;;6.75;1.90;;;18.20;1.00;;;;;;10503477;28;20211;-78
2022/04/29 12:19:37;;;;;;;2.22;0.80;;;18.10;1.00;;;;;;10518564;28;20222;-79
2022/04/29 12:25:33;;;;;;;3.47;1.73;;;18.20;99.90;;;;;;10515468;28;20245;-82
2022/04/29 12:36:53;;;;;;;9.07;2.92;;;18.50;1.00;;;;;;10499875;28;20253;-80
2022/04/29 12:42:20;;;;;;;25.00;9.43;;;18.50;1.00;;;;;;10489208;28;20210;-81
2022/04/29 12:47:59;;;;;;;24.90;10.65;;;18.40;1.00;;;;;;10490250;28;20187;-80
2022/04/29 12:53:22;;;;;;;3.83;2.13;;;18.30;1.00;;;;;;10473129;28;20188;-81
2022/04/29 12:58:44;;;;;;;16.17;7.53;;;18.20;1.00;;;;;;10457690;28;20230;-80
2022/04/29 13:04:06;;;;;;;9.52;4.80;;;18.10;1.00;;;;;;10505780;28;20195;-81
2022/04/29 13:09:37;;;;;;;11.00;5.63;;;17.80;1.00;;;;;;10480659;28;20202;-82
2022/04/29 13:14:58;;;;;;;3.58;1.40;;;17.90;1.00;;;;;;10517209;28;20241;-80
2022/04/29 13:20:20;;;;;;;4.40;2.20;;;18.60;78.90;;;;;;10515492;28;20222;-78
2022/04/29 13:25:42;;;;;;;3.85;1.95;;;18.90;99.90;;;;;;10513849;28;20406;-82
2022/04/29 13:31:05;;;;;;;6.10;2.90;;;19.20;99.90;;;;;;10491992;28;20205;-80
2022/04/29 13:36:27;;;;;;;6.65;2.05;;;19.40;99.90;;;;;;10470889;28;20433;-81
2022/04/29 13:41:48;;;;;;;16.42;2.13;;;19.40;99.90;;;;;;10471905;28;20187;-80
2022/04/29 13:47:10;;;;;;;6.20;1.48;;;19.30;1.00;;;;;;10458674;28;20540;-79
2022/04/29 13:58:12;;;;;;;2.90;0.88;;;19.10;1.00;;;;;;10514351;28;20241;-79
2022/04/29 14:03:33;;;;;;;5.25;1.50;;;18.90;1.00;;;;;;10483347;28;20282;-80
2022/04/29 14:08:55;;;;;;;5.60;2.05;;;18.60;1.00;;;;;;10514181;28;20199;-79
2022/04/29 14:14:16;;;;;;;2.65;1.63;;;18.20;1.00;;;;;;10512424;28;20206;-81
2022/04/29 14:19:38;;;;;;;2.92;1.77;;;17.90;1.00;;;;;;10509563;28;20238;-79
2022/04/29 14:25:01;;;;;;;4.60;2.35;;;17.80;1.00;;;;;;10512093;28;20246;-79
2022/04/29 14:30:22;;;;;;;5.97;3.03;;;17.80;1.00;;;;;;10510343;28;20195;-79
2022/04/29 14:35:44;;;;;;;3.47;1.40;;;18.10;1.00;;;;;;10512312;28;20525;-78
2022/04/29 14:41:06;;;;;;;3.40;1.38;;;18.20;1.00;;;;;;10511388;28;20219;-80
2022/04/29 14:46:29;;;;;;;2.63;1.90;;;18.00;1.00;;;;;;10512185;28;20229;-79
2022/04/29 14:51:50;;;;;;;3.67;2.22;;;17.90;1.00;;;;;;10517746;28;20201;-79
2022/04/29 14:57:12;;;;;;;4.72;3.13;;;17.70;1.00;;;;;;10504825;28;20336;-78
2022/04/29 15:02:34;;;;;;;5.80;3.38;;;17.50;99.90;;;;;;10519050;28;20213;-82
2022/04/29 15:07:55;;;;;;;10.27;2.17;;;17.40;5.30;;;;;;10480882;28;20529;-83
2022/04/29 15:18:57;;;;;;;22.88;11.48;;;17.10;99.90;;;;;;10515808;28;20232;-78
2022/04/29 15:24:19;;;;;;;9.73;3.90;;;17.00;99.90;;;;;;10549806;28;20296;-78
2022/04/29 15:29:40;;;;;;;7.13;2.20;;;16.90;1.00;;;;;;10526289;28;20205;-78
2022/04/29 15:35:02;;;;;;;6.22;2.30;;;16.70;57.00;;;;;;10523430;28;20269;-79
2022/04/29 15:40:23;;;;;;;5.95;2.80;;;16.60;99.90;;;;;;10509655;28;20520;-79
2022/04/29 15:45:52;;;;;;;17.52;7.15;;;16.40;99.90;;;;;;10508237;28;20486;-78
2022/04/29 15:51:13;;;;;;;8.18;4.93;;;16.20;1.00;;;;;;10521705;28;20189;-78
2022/04/29 15:56:36;;;;;;;8.60;4.03;;;16.00;1.00;;;;;;10524176;28;20199;-80
2022/04/29 16:01:57;;;;;;;10.88;5.13;;;15.70;44.50;;;;;;10508489;28;20212;-77
2022/04/29 16:07:18;;;;;;;7.30;3.78;;;15.70;99.90;;;;;;10523171;28;20369;-78
2022/04/29 16:12:40;;;;;;;8.75;3.60;;;15.60;99.20;;;;;;10522874;28;20201;-78
2022/04/29 16:29:21;;;;;;;8.02;5.63;;;14.90;1.00;;;;;;10526107;28;20199;-81
2022/04/29 16:34:43;;;;;;;14.85;8.55;;;14.80;1.00;;;;;;10522109;28;20190;-80
2022/04/29 16:40:04;;;;;;;19.85;8.25;;;14.80;1.00;;;;;;10508810;28;20225;-80
2022/04/29 16:45:26;;;;;;;27.83;15.80;;;14.70;14.30;;;;;;10508891;28;20258;-81
2022/04/29 16:50:48;;;;;;;19.83;11.77;;;14.60;1.00;;;;;;10508701;28;20204;-80
2022/04/29 16:56:09;;;;;;;15.85;5.57;;;14.50;1.00;;;;;;10521427;28;20389;-78
2022/04/29 17:01:30;;;;;;;8.23;4.95;;;14.40;1.00;;;;;;10520793;28;20229;-80
2022/04/29 17:06:52;;;;;;;7.63;4.13;;;14.20;1.00;;;;;;10506890;28;20520;-80
2022/04/29 17:12:16;;;;;;;9.27;4.00;;;14.10;1.00;;;;;;10534129;28;20435;-78
2022/04/29 17:17:37;;;;;;;8.45;3.80;;;14.10;1.00;;;;;;10561846;28;20226;-78
2022/04/29 17:22:59;;;;;;;8.65;3.67;;;13.80;1.00;;;;;;10563090;28;20262;-80
2022/04/29 17:28:22;;;;;;;7.45;3.75;;;13.70;1.00;;;;;;10561985;28;20268;-79
2022/04/29 17:33:43;;;;;;;7.22;3.60;;;13.50;3.20;;;;;;10560961;28;20197;-80
2022/04/29 17:39:05;;;;;;;12.27;4.85;;;13.40;16.90;;;;;;10561392;28;20250;-78
2022/04/29 17:44:26;;;;;;;11.02;5.10;;;13.30;1.00;;;;;;10561863;28;20186;-79
2022/04/29 17:50:20;;;;;;;17.48;5.70;;;13.10;1.00;;;;;;10562034;28;20358;-78
2022/04/29 17:55:42;;;;;;;5.72;3.22;;;12.90;1.00;;;;;;10561858;28;20477;-79
2022/04/29 18:01:03;;;;;;;6.30;3.25;;;12.80;1.00;;;;;;10550142;28;20223;-78
2022/04/29 18:06:24;;;;;;;6.88;2.60;;;12.60;1.00;;;;;;10519856;28;20189;-78
2022/04/29 18:11:46;;;;;;;5.53;4.13;;;12.50;1.00;;;;;;10533010;28;20206;-80
2022/04/29 18:17:10;;;;;;;6.53;3.70;;;12.30;1.00;;;;;;10561101;28;20201;-79
2022/04/29 18:22:31;;;;;;;10.03;5.47;;;12.20;1.00;;;;;;10561519;28;20450;-79
2022/04/29 18:27:53;;;;;;;10.13;4.68;;;12.10;1.00;;;;;;10568471;28;20228;-77
2022/04/29 18:33:16;;;;;;;14.02;6.03;;;12.00;1.00;;;;;;10569912;28;20196;-79
2022/04/29 18:38:37;;;;;;;22.70;9.20;;;11.90;1.00;;;;;;10569482;28;20222;-78
2022/04/29 18:43:59;;;;;;;20.13;9.25;;;11.90;1.00;;;;;;10568099;28;20188;-78
2022/04/29 18:49:20;;;;;;;23.58;9.60;;;11.80;1.00;;;;;;10568058;28;20203;-80
2022/04/29 18:54:42;;;;;;;21.40;8.85;;;11.70;1.00;;;;;;10568217;28;20205;-78
2022/04/29 19:00:06;;;;;;;17.35;8.30;;;11.60;1.00;;;;;;10565380;28;20219;-79
2022/04/29 19:05:27;;;;;;;29.35;12.55;;;11.50;1.00;;;;;;10526682;28;20194;-80
2022/04/29 19:10:49;;;;;;;30.15;15.75;;;11.40;1.00;;;;;;10524601;28;20445;-79
2022/04/29 19:16:10;;;;;;;23.13;9.60;;;11.30;1.00;;;;;;10567394;28;20484;-79
2022/04/29 19:21:31;;;;;;;15.52;7.40;;;11.10;1.00;;;;;;10567494;28;20541;-79
2022/04/29 19:26:53;;;;;;;14.65;7.55;;;11.00;1.00;;;;;;10567538;28;20229;-78
2022/04/29 19:32:16;;;;;;;17.23;8.27;;;10.90;53.00;;;;;;10567466;28;20194;-79
2022/04/29 19:37:38;;;;;;;15.63;8.70;;;10.70;1.00;;;;;;10565830;28;20460;-80
2022/04/29 19:42:59;;;;;;;23.67;10.03;;;10.60;1.00;;;;;;10566752;28;20211;-79
2022/04/29 19:48:20;;;;;;;37.50;13.02;;;10.60;37.80;;;;;;10566666;28;20213;-79
2022/04/29 19:53:42;;;;;;;18.55;8.73;;;10.50;99.90;;;;;;10565455;28;20229;-78
2022/04/29 19:59:12;;;;;;;17.33;7.30;;;10.30;99.90;;;;;;10565052;28;20271;-78
2022/04/29 20:04:33;;;;;;;11.80;6.13;;;10.30;99.90;;;;;;10524370;28;20199;-77
2022/04/29 20:09:55;;;;;;;16.65;6.65;;;10.10;99.90;;;;;;10517092;28;20203;-78
2022/04/29 20:15:17;;;;;;;19.63;7.73;;;10.00;1.00;;;;;;10482307;28;20188;-78
2022/04/29 20:20:38;;;;;;;12.32;6.90;;;9.90;1.00;;;;;;10481022;28;20224;-78
2022/04/29 20:26:02;;;;;;;15.03;7.73;;;9.80;1.00;;;;;;10481527;28;20237;-77
2022/04/29 20:31:23;;;;;;;14.90;8.00;;;9.60;99.90;;;;;;10480547;28;20229;-78
2022/04/29 20:36:47;;;;;;;14.80;8.27;;;9.60;1.00;;;;;;10466238;28;20204;-77
2022/04/29 20:47:48;;;;;;;18.67;10.30;;;9.50;1.00;;;;;;10479302;28;20231;-78
2022/04/29 20:53:09;;;;;;;17.07;10.20;;;9.40;99.90;;;;;;10480648;28;20194;-79
2022/04/29 20:58:33;;;;;;;15.67;9.10;;;9.30;1.00;;;;;;10465585;28;20257;-78
2022/04/29 21:03:54;;;;;;;13.37;7.80;;;9.20;99.90;;;;;;10515113;28;20202;-79
2022/04/29 21:09:15;;;;;;;16.57;9.60;;;9.10;1.00;;;;;;10521182;28;20311;-79
2022/04/29 21:14:38;;;;;;;19.57;10.07;;;9.00;1.00;;;;;;10571016;28;20195;-78
2022/04/29 21:20:00;;;;;;;19.43;12.20;;;9.00;99.90;;;;;;10563163;28;20226;-79
2022/04/29 21:25:21;;;;;;;24.80;12.40;;;8.80;1.00;;;;;;10562718;28;20254;-79
2022/04/29 21:30:59;;;;;;;21.50;13.47;;;8.70;1.00;;;;;;10547650;28;20201;-79
2022/04/29 21:36:21;;;;;;;19.17;11.43;;;8.70;1.00;;;;;;10561672;28;20418;-78
2022/04/29 21:41:43;;;;;;;17.80;10.73;;;8.60;1.00;;;;;;10561557;28;20221;-76
2022/04/29 21:47:04;;;;;;;17.50;9.70;;;8.60;1.00;;;;;;10562215;28;20238;-79
2022/04/29 21:52:25;;;;;;;17.83;9.47;;;8.60;1.00;;;;;;10560835;28;20495;-78
2022/04/29 21:57:47;;;;;;;15.23;10.20;;;8.60;99.90;;;;;;10560176;28;20275;-79
2022/04/29 22:03:11;;;;;;;18.27;10.70;;;8.50;99.90;;;;;;10517539;28;20410;-76
2022/04/29 22:08:32;;;;;;;14.30;10.17;;;8.30;1.00;;;;;;10517619;28;20201;-79
2022/04/29 22:13:54;;;;;;;17.77;10.50;;;8.30;1.00;;;;;;10548954;28;20524;-78
2022/04/29 22:19:15;;;;;;;18.47;11.03;;;8.10;1.00;;;;;;10560080;28;20490;-77
2022/04/29 22:24:36;;;;;;;20.70;12.73;;;8.10;1.00;;;;;;10561274;28;20232;-80
2022/04/29 22:29:57;;;;;;;26.13;14.83;;;8.00;10.00;;;;;;10561368;28;20222;-79
2022/04/29 22:35:19;;;;;;;25.80;16.27;;;7.90;24.90;;;;;;10531514;28;20203;-80
2022/04/29 22:40:40;;;;;;;27.17;15.10;;;7.80;99.90;;;;;;10560015;28;20382;-77
2022/04/29 22:46:01;;;;;;;25.53;14.70;;;7.70;99.90;;;;;;10560176;28;20292;-80
2022/04/29 22:51:22;;;;;;;26.07;14.67;;;7.60;99.90;;;;;;10560593;28;20255;-78
2022/04/29 22:56:44;;;;;;;27.97;15.90;;;7.50;99.90;;;;;;10560813;28;20194;-79
2022/04/29 23:02:05;;;;;;;34.93;16.87;;;7.50;99.90;;;;;;10540739;28;20223;-79
2022/04/29 23:07:26;;;;;;;32.67;16.33;;;7.40;99.90;;;;;;10518503;28;20243;-81
2022/04/29 23:12:48;;;;;;;30.57;17.27;;;7.30;99.90;;;;;;10540400;28;20208;-79
2022/04/29 23:23:49;;;;;;;30.17;16.43;;;7.10;99.90;;;;;;10566729;28;20220;-80
2022/04/29 23:29:11;;;;;;;38.57;18.83;;;7.00;99.90;;;;;;10567783;28;20192;-78
2022/04/29 23:34:33;;;;;;;39.37;21.13;;;7.00;99.90;;;;;;10566319;28;20190;-79
2022/04/29 23:39:54;;;;;;;36.67;19.70;;;6.90;99.90;;;;;;10551880;28;20223;-81
2022/04/29 23:45:16;;;;;;;36.10;19.50;;;6.70;99.90;;;;;;10567083;28;20196;-81
2022/04/29 23:50:36;;;;;;;35.00;19.13;;;6.60;99.90;;;;;;10565730;28;20187;-81
2022/04/29 23:55:58;;;;;;;35.00;18.73;;;6.50;99.90;;;;;;10565347;28;20206;-80
